Tous les Résultats et les Classements des Compétitions E.S.F.

ESF REALLON "ESF SKI TOUR 2012" le 28/01/2012  

 Epreuve antérieure au 1er Décembre 2016, ne comptant plus pour le classement SkiOpen.

Ouvreur Handicap Temps Réalisé Temps Base
NORBERT SYLVAIN 8.00 51.68 47.85
Médaille Or Vermeil Argent Bronze Fléchette
Pourcentage 15.00% 28.00% 40.00% 45.00% 50.00%
Temps 55.02 1:01.24 1:06.99 1:11.77 1:14.16
Clt.   Identité Code S. An Cat Temps Pts Médaille
1 ETIENNE SOPHIE FFS2653669 F 1999 BEN 53.53 11.87 Or
2 OULD HOCINE GUILLAUME FFS2626680 M 1997 MIN 53.78 12.39 Or
3 CORTIAL DAMIEN ESF1062310932 M 1998 MIN 54.35 13.58 Or
4 MAGNAN THOMAS FFS2627178 M 1997 MIN 54.72 14.35 Or
5 SOUQUE LUCAS FFS2626677 M 1997 MIN 55.13 15.21 Vermeil
6 DUFILH BERTRAND ESF0062302844 M 1997 MIN 55.24 15.44 Vermeil
7 BOREL MANON FFS2623850 F 1999 BEN 55.35 15.67 Vermeil
8 EYRAUD FRANCOIS FFS2613966 M 1997 MIN 55.52 16.03 Vermeil
9 BELLOT MATHILDE FFS2614169 F 1997 MIN 55.69 16.38 Vermeil
10 CHEVALIER HUGO FFS2650002 M 1997 MIN 55.84 16.70 Vermeil
11 CAGNET UGO FFS2663044 M 1999 BEN 55.86 16.74 Vermeil
12 LOFFREDA SEBASTIANO ESF0845510001 M 1997 MIN 55.90 16.82 Vermeil
13 PERIS MARION FFS2632842 F 1998 MIN 56.15 17.34 Vermeil
14 COMERRO LAVINIA ESF0845510007 F 1998 MIN 56.34 17.74 Vermeil
15 DISDIER MELISSA FFS2633253 F 1999 BEN 56.60 18.28 Vermeil
16 DE CRISTOFARO LORENZO ESF0845510159 M 1997 MIN 56.62 18.33 Vermeil
17 CHAPPAZ CHLOE FFS2642706 F 1997 MIN 56.87 18.85 Vermeil
18 CARLAC LOUIS ESF0862310031 M 1997 MIN 56.92 18.95 Vermeil
19 MULDER TESSA FFS2645734 F 1999 BEN 57.05 19.22 Vermeil
20 CHOLLET JEREMY FFS2653949 M 1997 MIN 57.16 19.45 Vermeil
21 CHENAF ELISA FFS2640071 F 1998 MIN 57.29 19.73 Vermeil
22 DULAC PERRINE FFS2636865 F 1998 MIN 57.47 20.10 Vermeil
23 DE LAURENTIS ALBERTO ESF0945510090 M 1997 MIN 57.54 20.25 Vermeil
24 PREVOST JULIE ESF1140710185 F 1998 MIN 58.01 21.23 Vermeil
25 ESTELLON CYRIANNE FFS2630675 F 1999 BEN 58.05 21.31 Vermeil
26 CEFALO FRANCESCA ESF0845510060 F 1998 MIN 58.29 21.82 Vermeil
27 GAUTHIER ANTOINE FFS2628332 M 1998 MIN 58.35 21.94 Vermeil
28 JAUSSAUD THEO FFS2629408 M 2000 BEN 58.59 22.44 Vermeil
29 ETIENNE ALEXANDRA ESF0862310040 F 1999 BEN 58.64 22.55 Vermeil
30 ESMIEU LENAIC FFS2651724 M 1999 BEN 58.68 22.63 Vermeil
30 JULLIEN CHARLOTTE FFS2647224 F 1997 MIN 58.68 22.63 Vermeil
32 ARNAUD MATHIAS FFS2637217 M 1999 BEN 58.75 22.78 Vermeil
33 RUBIO FRANCK ESF0869200068 M 1998 MIN 58.87 23.03 Vermeil
34 SILVE HUGO FFS2646036 M 1998 MIN 58.98 23.26 Vermeil
35 BAUCHET ARTHUR ESF0962000034 M 2000 BEN 59.19 23.70 Vermeil
36 TRILLES LISA FFS2627179 F 1999 BEN 59.31 23.95 Vermeil
37 MAZU NICOLAS ESF0760550135 M 1998 MIN 59.35 24.03 Vermeil
38 MATHIEU ILONA FFS2646717 F 2000 BEN 59.41 24.16 Vermeil
39 FLORIT THOMAS FFS2653327 M 1997 MIN 59.66 24.68 Vermeil
40 SAPINO TRISTAN ESF0662000890 M 1999 BEN 59.74 24.85 Vermeil
41 ALBERT CLEMENT ESF0862310733 M 1998 MIN 59.92 25.22 Vermeil
42 PERRIN AXEL FFS2642303 M 1999 BEN 1:00.00 25.39 Vermeil
43 ESCALLIER LEO FFS2620220 M 1997 MIN 1:00.15 25.70 Vermeil
44 MESQUIDA LEO FFS2661061 M 1999 BEN 1:00.16 25.72 Vermeil
45 BIANCHIN GIOVANNI ESF0845510276 M 1999 BEN 1:00.27 25.95 Vermeil
46 LABARUTIAS AINA FFS2634540 F 1999 BEN 1:00.74 26.94 Vermeil
47 PACE HUGO FFS2640237 M 1999 BEN 1:00.83 27.12 Vermeil
48 SENEMAUD CYRIL ESF1152160167 M 1998 MIN 1:01.04 27.56 Vermeil
49 CHAUVET ROMAIN ESF0862310102 M 1998 MIN 1:01.11 27.71 Vermeil
50 FOUCHY JADE ESF0862310210 F 1999 BEN 1:01.26 28.02 Argent
51 MARTIN TEULE MAXENCE ESF1069200583 M 1999 BEN 1:01.89 29.34 Argent
52 GUILLON YAEL FFS2657147 M 2002 POU 1:01.94 29.44 Argent
53 CHOSSAT JULIETTE FFS2646553 F 1998 MIN 1:01.98 29.53 Argent
54 FISCHER JULIE FFS2658904 F 2000 BEN 1:02.00 29.57 Argent
55 BROCHIER JULES FFS2638045 M 2000 BEN 1:02.16 29.90 Argent
56 ANTOINE JULIE FFS2652012 F 2000 BEN 1:02.17 29.92 Argent
57 GASPARATO PIETRO ESF0845510049 M 1998 MIN 1:02.20 29.99 Argent
58 VILLARD ARTHUR FFS2623848 M 1999 BEN 1:02.28 30.15 Argent
59 BARNEOUD JULIEN ESF0662001061 M 1998 MIN 1:03.57 32.85 Argent
60 ROUX JUSTINE FFS2645736 F 1999 BEN 1:03.62 32.95 Argent
61 BRESSY BAPTISTE ESF1152160084 M 2001 POU 1:03.76 33.25 Argent
62 PASSONI LAURA ESF0762000190 F 1997 MIN 1:03.93 33.60 Argent
62 STEFANI LEA FFS2662856 F 2000 BEN 1:03.93 33.60 Argent
64 GUY RAPHAEL ESF1162000542 M 1999 BEN 1:03.95 33.64 Argent
65 DONON CLARA FFS2640476 F 1998 MIN 1:04.42 34.63 Argent
66 GLEIZE ALEXANDRE FFS2657148 M 2002 POU 1:04.59 34.98 Argent
67 CABRAS VICTOR ESF0862311142 M 2000 BEN 1:04.67 35.15 Argent
68 SIBONA MARCO ESF1162000631 M 1999 BEN 1:04.71 35.23 Argent
69 MEDDE ISAURE FFS2662850 F 2000 BEN 1:04.77 35.36 Argent
70 OLLAGNIER ELISE ESF0721000142 F 1998 MIN 1:04.88 35.59 Argent
71 SCHROETTER THEO FFS2649997 M 2000 BEN 1:04.95 35.73 Argent
72 ALLEMAND JUSTINE FFS2634842 F 2000 BEN 1:05.00 35.84 Argent
73 LA VIGNA BASTIEN FFS2663356 M 2000 BEN 1:05.05 35.94 Argent
74 HUGUES ROMAIN ESF0962000806 M 2000 BEN 1:05.28 36.42 Argent
75 ROUX MATHILDE FFS2649999 F 2001 POU 1:05.70 37.30 Argent
76 FERNANDEZ CLARYSSE ESF1035900018 F 2000 BEN 1:05.78 37.47 Argent
77 PERASSO LOUISE ESF1069200215 F 2001 POU 1:05.89 37.70 Argent
78 MARTIN TEULE AYMERIC ESF1069200584 M 2001 POU 1:06.19 38.33 Argent
79 DUMAZET THEO ESF1152160959 M 1998 MIN 1:06.31 38.58 Argent
80 TALBOT TRISTAN FFS2663626 M 2002 POU 1:06.51 38.99 Argent
81 GUILLON MALO FFS2650001 M 2000 BEN 1:06.58 39.14 Argent
82 GIRAUD CHARLOTTE ESF1062000843 F 1997 MIN 1:06.78 39.56 Argent
83 BOUSQUET NICOLAS FFS2663035 M 1997 MIN 1:06.87 39.75 Argent
84 KALUZA HUGO FFS2662852 M 2002 POU 1:07.20 40.44 Bronze
85 FLORIT CHIARA FFS2653328 F 1999 BEN 1:07.94 41.98 Bronze
86 NABET SAMUEL FFS2664014 M 2000 BEN 1:07.98 42.07 Bronze
87 BLANCHARD KILLIAN ESF1062000717 M 2000 BEN 1:08.55 43.26 Bronze
88 FAIVRE MARY ESF0969200466 F 2000 BEN 1:08.78 43.74 Bronze
89 REYNIER LUCIE FFS2645944 F 2001 POU 1:08.84 43.86 Bronze
90 BONNAFFOUX CHLOE FFS2663233 F 2001 POU 1:08.92 44.03 Bronze
91 RHOUDDANI HALIMA FFS2658727 F 1998 MIN 1:09.23 44.68 Bronze
92 LEGALL DAMIEN ESF1127600040 M 2000 BEN 1:09.52 45.28 Bronze
93 FIGUERAS GABRIEL ESF1162310217 M 2000 BEN 1:09.55 45.35 Bronze
94 HENRY TOM ESF1069200001 M 2000 BEN 1:09.71 45.68 Bronze
95 FRIEDEWALD SAMUEL FFS2663032 M 2001 POU 1:10.67 47.69 Bronze
96 FOUCHY AGATHE ESF0862311134 F 2001 POU 1:10.71 47.77 Bronze
97 MEERT ANDREA FFS2658685 F 2000 BEN 1:11.03 48.44 Bronze
98 CARON MOUTINHO NATHAN FFS2653423 M 2002 POU 1:11.08 48.54 Bronze
99 LABARUTIAS IRIS FFS2634538 F 2000 BEN 1:13.40 53.39 Fléchette
100 IMBERT MATHIS FFS2660761 M 2002 POU 1:13.81 54.25 Fléchette
101 GUILLON MORGANE FFS2652765 F 2000 BEN 1:16.45 59.77
102 FAIVRE LAURY ESF0969200467 F 2002 POU 1:17.34 61.63
103 BOUSQUET LUDIVINE FFS2663033 F 2002 POU 1:17.48 61.92
104 LE GALL LEO ESF1127600147 M 2003 POU 1:17.92 62.84